createdAt,value
2022-11-15T00:01:29.534Z,125.45
2022-11-15T00:04:15.375Z,134.75
2022-11-15T00:07:01.039Z,131.70
2022-11-15T00:09:46.548Z,140.23
2022-11-15T00:12:32.390Z,149.02
2022-11-15T00:15:17.929Z,145.85
2022-11-15T00:18:04.621Z,144.77
2022-11-15T00:20:50.503Z,139.07
2022-11-15T00:23:36.954Z,164.85
2022-11-15T00:26:22.327Z,146.85
2022-11-15T00:29:08.328Z,151.73
2022-11-15T00:31:53.862Z,156.05
2022-11-15T00:34:39.263Z,145.38
2022-11-15T00:37:25.018Z,143.75
2022-11-15T00:40:11.411Z,139.60
2022-11-15T00:42:57.315Z,142.52
2022-11-15T00:45:42.680Z,137.15
2022-11-15T00:48:28.314Z,141.70
2022-11-15T00:51:13.805Z,150.07
2022-11-15T00:53:59.614Z,153.43
2022-11-15T00:56:45.119Z,141.98
2022-11-15T00:59:30.697Z,147.55
2022-11-15T01:02:16.417Z,138.27
2022-11-15T01:05:02.123Z,145.65
2022-11-15T01:07:47.611Z,142.60
2022-11-15T01:10:33.149Z,146.48
2022-11-15T01:13:18.498Z,133.55
2022-11-15T01:16:12.046Z,140.05
2022-11-15T01:18:57.684Z,140.82
2022-11-15T01:21:43.127Z,134.88
2022-11-15T01:24:28.438Z,135.38
2022-11-15T01:27:14.200Z,139.30
2022-11-15T01:29:59.953Z,132.00
2022-11-15T01:32:45.190Z,134.00
2022-11-15T01:35:30.070Z,134.18
2022-11-15T01:38:15.933Z,139.93
2022-11-15T01:41:01.759Z,125.57
2022-11-15T01:43:50.434Z,139.05
2022-11-15T01:46:37.175Z,130.52
2022-11-15T01:49:24.646Z,129.90
2022-11-15T01:52:18.964Z,138.45
2022-11-15T01:55:07.461Z,142.23
2022-11-15T01:57:56.251Z,124.38
2022-11-15T02:00:42.021Z,126.38
2022-11-15T02:03:36.847Z,128.43
2022-11-15T02:06:23.040Z,125.35
2022-11-15T02:09:08.803Z,126.05
2022-11-15T02:11:56.268Z,132.57
2022-11-15T02:14:44.052Z,121.03
2022-11-15T02:17:44.716Z,121.35
2022-11-15T02:20:36.014Z,123.30
2022-11-15T02:23:42.800Z,127.40
2022-11-15T02:26:59.299Z,129.15
2022-11-15T02:29:44.584Z,119.50
2022-11-15T02:33:02.525Z,125.10
2022-11-15T02:35:59.465Z,125.43
2022-11-15T02:39:01.152Z,121.75
2022-11-15T02:41:57.920Z,115.88
2022-11-15T02:44:47.242Z,126.25
2022-11-15T02:50:25.721Z,102.07
2022-11-15T02:53:11.476Z,110.70
2022-11-15T02:55:58.493Z,112.65
2022-11-15T02:59:06.384Z,116.75
2022-11-15T03:02:04.226Z,113.05
2022-11-15T03:05:03.995Z,106.00
2022-11-15T03:08:03.504Z,113.50
2022-11-15T03:11:15.775Z,107.35
2022-11-15T03:14:04.253Z,105.47
2022-11-15T03:16:56.148Z,119.10
2022-11-15T03:19:44.904Z,101.43
2022-11-15T03:22:43.606Z,109.82
2022-11-15T03:25:31.016Z,105.07
2022-11-15T03:28:23.413Z,99.50
2022-11-15T03:31:29.842Z,101.00
2022-11-15T03:34:45.137Z,111.50
2022-11-15T03:37:45.259Z,103.93
2022-11-15T03:40:38.101Z,102.28
2022-11-15T03:43:45.584Z,97.13
2022-11-15T03:46:41.126Z,105.63
2022-11-15T03:49:32.211Z,108.03
2022-11-15T03:52:22.918Z,105.95
2022-11-15T03:55:11.767Z,110.15
2022-11-15T03:58:00.656Z,112.05
2022-11-15T04:00:45.966Z,106.20
2022-11-15T04:03:31.868Z,111.28
2022-11-15T04:06:17.358Z,105.13
2022-11-15T04:09:02.815Z,104.60
2022-11-15T04:11:48.772Z,103.03
2022-11-15T04:14:34.240Z,106.97
2022-11-15T04:17:19.927Z,103.85
2022-11-15T04:20:30.446Z,104.80
2022-11-15T04:23:36.978Z,103.85
2022-11-15T04:26:24.798Z,119.50
2022-11-15T04:29:28.848Z,124.95
2022-11-15T04:32:14.347Z,142.95
2022-11-15T04:35:00.044Z,127.00
2022-11-15T04:37:49.255Z,135.50
2022-11-15T04:40:35.957Z,126.00
2022-11-15T04:43:21.866Z,142.25
2022-11-15T04:46:07.432Z,147.88
2022-11-15T04:48:58.225Z,130.55
2022-11-15T04:51:44.563Z,156.65
2022-11-15T04:54:30.165Z,148.70
2022-11-15T04:57:15.992Z,139.23
2022-11-15T05:00:01.696Z,141.00
2022-11-15T05:03:05.376Z,140.70
2022-11-15T05:05:50.876Z,134.68
2022-11-15T05:08:37.571Z,140.95
2022-11-15T05:11:23.732Z,146.65
2022-11-15T05:14:09.273Z,135.38
2022-11-15T05:16:54.678Z,132.98
2022-11-15T05:19:40.957Z,129.55
2022-11-15T05:22:26.398Z,122.97
2022-11-15T05:25:11.900Z,115.10
2022-11-15T05:27:57.342Z,109.20
2022-11-15T05:30:43.132Z,76.38
2022-11-15T05:33:29.078Z,52.97
2022-11-15T05:36:38.887Z,51.35
2022-11-15T05:39:24.608Z,46.88
2022-11-15T05:42:16.208Z,50.30
2022-11-15T05:45:06.530Z,53.03
2022-11-15T05:47:53.589Z,49.92
2022-11-15T05:50:44.153Z,57.67
2022-11-15T05:53:30.999Z,51.58
2022-11-15T05:56:17.229Z,58.75
2022-11-15T05:59:04.035Z,64.47
2022-11-15T06:01:50.081Z,60.78
2022-11-15T06:04:35.611Z,57.70
2022-11-15T06:07:21.308Z,58.75
2022-11-15T06:10:08.804Z,54.92
2022-11-15T06:13:02.261Z,54.92
2022-11-15T06:15:47.768Z,55.42
2022-11-15T06:18:34.781Z,62.25
2022-11-15T06:21:20.173Z,71.35
2022-11-15T06:24:06.863Z,73.55
2022-11-15T06:26:52.691Z,76.60
2022-11-15T06:29:38.279Z,94.75
2022-11-15T06:32:24.192Z,87.07
2022-11-15T06:35:10.007Z,89.40
2022-11-15T06:37:55.740Z,93.20
2022-11-15T06:40:41.066Z,91.70
2022-11-15T06:43:26.759Z,82.43
2022-11-15T06:46:12.596Z,94.13
2022-11-15T06:48:57.866Z,89.03
2022-11-15T06:51:43.446Z,84.28
2022-11-15T06:54:29.349Z,75.93
2022-11-15T06:57:14.809Z,86.32
2022-11-15T07:00:00.230Z,80.90
2022-11-15T07:02:45.771Z,78.28
2022-11-15T07:05:31.553Z,76.18
2022-11-15T07:08:17.277Z,78.80
2022-11-15T07:11:06.639Z,92.57
2022-11-15T07:13:52.319Z,85.72
2022-11-15T07:16:38.498Z,82.00
2022-11-15T07:19:24.181Z,65.43
2022-11-15T07:22:09.817Z,70.07
2022-11-15T07:24:55.150Z,62.20
2022-11-15T07:27:41.294Z,64.68
2022-11-15T07:30:28.415Z,58.47
2022-11-15T07:33:13.796Z,64.25
2022-11-15T07:36:06.129Z,63.08
2022-11-15T07:38:51.386Z,62.47
2022-11-15T07:41:47.371Z,62.95
2022-11-15T07:44:33.073Z,58.42
2022-11-15T07:47:18.590Z,63.28
2022-11-15T07:50:04.405Z,66.75
2022-11-15T07:52:54.676Z,64.63
2022-11-15T07:55:42.150Z,60.00
2022-11-15T07:58:27.930Z,63.08
2022-11-15T08:01:14.537Z,66.30
2022-11-15T08:04:00.545Z,65.57
2022-11-15T08:06:46.043Z,72.00
2022-11-15T08:09:31.769Z,71.28
2022-11-15T08:12:17.395Z,94.05
2022-11-15T08:15:04.034Z,91.07
2022-11-15T08:18:05.172Z,88.40
2022-11-15T08:20:50.785Z,88.80
2022-11-15T08:23:36.428Z,86.22
2022-11-15T08:26:21.788Z,78.15
2022-11-15T08:29:09.782Z,81.25
2022-11-15T08:31:59.204Z,71.45
2022-11-15T08:34:45.365Z,80.57
2022-11-15T08:37:31.114Z,78.40
2022-11-15T08:40:16.925Z,83.85
2022-11-15T08:43:04.192Z,84.22
2022-11-15T08:45:50.048Z,81.57
2022-11-15T08:48:35.517Z,77.70
2022-11-15T08:51:23.894Z,79.85
2022-11-15T08:54:09.874Z,97.45
2022-11-15T08:56:55.666Z,92.60
2022-11-15T08:59:41.248Z,88.85
2022-11-15T09:02:27.272Z,87.60
2022-11-15T09:05:12.856Z,82.05
2022-11-15T09:07:58.609Z,87.80
2022-11-15T09:10:44.061Z,90.05
2022-11-15T09:13:29.555Z,81.32
2022-11-15T09:16:16.317Z,88.57
2022-11-15T09:19:02.079Z,88.45
2022-11-15T09:21:47.781Z,91.80
2022-11-15T09:24:33.528Z,91.60
2022-11-15T09:27:19.559Z,97.72
2022-11-15T09:30:06.294Z,95.82
2022-11-15T09:32:52.049Z,88.15
2022-11-15T09:35:37.827Z,101.78
2022-11-15T09:38:23.098Z,94.15
2022-11-15T09:41:14.995Z,98.05
2022-11-15T09:44:12.337Z,96.25
2022-11-15T09:47:06.443Z,97.38
2022-11-15T09:49:59.535Z,91.95
2022-11-15T09:52:37.098Z,98.18
2022-11-15T09:55:07.027Z,91.15
2022-11-15T09:57:45.736Z,94.97
2022-11-15T10:00:46.644Z,92.65
2022-11-15T10:03:14.753Z,86.20
2022-11-15T10:05:51.278Z,99.30
2022-11-15T10:08:51.276Z,89.03
2022-11-15T10:11:37.661Z,104.05
2022-11-15T10:14:22.223Z,93.07
2022-11-15T10:17:07.231Z,99.53
2022-11-15T10:19:43.795Z,101.68
2022-11-15T10:22:30.518Z,95.65
2022-11-15T10:25:27.920Z,87.15
2022-11-15T10:28:07.691Z,94.57
2022-11-15T10:31:02.726Z,100.43
2022-11-15T10:33:37.512Z,97.47
2022-11-15T10:36:09.764Z,93.90
2022-11-15T10:38:49.142Z,95.28
2022-11-15T10:41:23.665Z,101.30
2022-11-15T10:44:12.046Z,97.60
2022-11-15T10:46:49.107Z,95.07
2022-11-15T10:49:22.088Z,103.80
2022-11-15T10:51:52.862Z,109.35
2022-11-15T10:54:28.982Z,101.57
2022-11-15T10:57:00.004Z,98.32
2022-11-15T10:59:38.981Z,107.22
2022-11-15T11:04:52.405Z,112.53
2022-11-15T11:07:25.365Z,111.85
2022-11-15T11:10:49.846Z,116.20
2022-11-15T11:13:24.709Z,104.55
2022-11-15T11:16:15.097Z,113.80
2022-11-15T11:18:50.723Z,108.82
2022-11-15T11:21:32.951Z,108.80
2022-11-15T11:24:15.744Z,102.80
2022-11-15T11:27:19.758Z,98.60
2022-11-15T11:30:17.222Z,99.60
2022-11-15T11:33:17.346Z,94.93
2022-11-15T11:36:02.896Z,100.22
2022-11-15T11:38:51.694Z,93.35
2022-11-15T11:41:45.290Z,94.57
2022-11-15T11:44:26.220Z,84.10
2022-11-15T11:46:59.126Z,93.45
2022-11-15T11:49:37.135Z,98.93
2022-11-15T11:52:13.265Z,92.38
2022-11-15T11:54:58.681Z,89.38
2022-11-15T11:57:40.733Z,88.30
2022-11-15T12:00:21.468Z,93.07
2022-11-15T12:02:58.879Z,87.20
2022-11-15T12:05:37.865Z,83.90
2022-11-15T12:08:22.897Z,91.90
2022-11-15T12:10:58.871Z,89.55
2022-11-15T12:13:30.146Z,94.60
2022-11-15T12:16:18.555Z,89.85
2022-11-15T12:18:50.761Z,94.35
2022-11-15T12:21:28.715Z,81.78
2022-11-15T12:24:05.397Z,90.95
2022-11-15T12:26:49.194Z,87.55
2022-11-15T12:29:24.992Z,80.00
2022-11-15T12:31:57.511Z,86.45
2022-11-15T12:34:36.440Z,77.63
2022-11-15T12:37:45.462Z,80.38
2022-11-15T12:40:21.751Z,80.80
2022-11-15T12:43:32.086Z,82.07
2022-11-15T12:46:04.888Z,81.18
2022-11-15T12:48:37.783Z,75.40
2022-11-15T12:51:05.443Z,80.95
2022-11-15T12:53:34.328Z,79.60
2022-11-15T12:56:07.566Z,74.05
2022-11-15T12:58:53.439Z,77.18
2022-11-15T13:01:36.326Z,79.53
2022-11-15T13:04:22.410Z,82.47
2022-11-15T13:06:51.067Z,81.93
2022-11-15T13:09:30.495Z,89.10
2022-11-15T13:11:59.584Z,77.80
2022-11-15T13:14:38.760Z,78.10
2022-11-15T13:17:38.760Z,89.18
2022-11-15T13:20:09.040Z,76.32
2022-11-15T13:23:00.566Z,87.40
2022-11-15T13:25:36.942Z,79.55
2022-11-15T13:28:10.937Z,79.68
2022-11-15T13:30:38.926Z,81.38
2022-11-15T13:33:17.607Z,82.82
2022-11-15T13:35:49.079Z,79.90
2022-11-15T13:38:25.230Z,78.95
2022-11-15T13:40:52.395Z,88.43
2022-11-15T13:43:22.391Z,83.13
2022-11-15T13:46:10.630Z,81.72
2022-11-15T13:51:20.718Z,84.25
2022-11-15T13:53:54.547Z,85.47
2022-11-15T13:56:22.297Z,78.53
2022-11-15T13:58:49.699Z,88.55
2022-11-15T14:01:21.000Z,82.85
2022-11-15T14:03:56.627Z,87.10
2022-11-15T14:06:26.076Z,85.45
2022-11-15T14:09:04.597Z,80.65
2022-11-15T14:11:32.099Z,88.15
2022-11-15T14:14:14.067Z,89.30
2022-11-15T14:16:49.768Z,91.45
2022-11-15T14:19:22.772Z,87.95
2022-11-15T14:22:14.903Z,84.90
2022-11-15T14:24:47.470Z,89.65
2022-11-15T14:27:33.425Z,87.30
2022-11-15T14:30:01.063Z,79.90
2022-11-15T14:32:31.215Z,86.18
2022-11-15T14:35:03.161Z,81.97
2022-11-15T14:37:35.125Z,83.28
2022-11-15T14:40:05.307Z,83.78
2022-11-15T14:42:32.884Z,86.93
2022-11-15T14:44:59.876Z,82.03
2022-11-15T14:47:26.958Z,88.78
2022-11-15T14:49:53.804Z,91.40
2022-11-15T14:52:36.651Z,95.38
2022-11-15T14:55:12.911Z,104.18
2022-11-15T14:57:40.319Z,99.50
2022-11-15T15:00:09.947Z,94.10
2022-11-15T15:02:41.666Z,95.25
2022-11-15T15:05:20.249Z,99.80
2022-11-15T15:07:47.931Z,94.25
2022-11-15T15:13:03.787Z,92.15
2022-11-15T15:15:36.889Z,92.90
2022-11-15T15:18:05.876Z,90.63
2022-11-15T15:20:33.697Z,92.80
2022-11-15T15:23:00.847Z,94.85
2022-11-15T15:25:35.962Z,88.93
2022-11-15T15:28:04.286Z,85.30
2022-11-15T15:30:31.844Z,89.45
2022-11-15T15:32:58.943Z,87.78
2022-11-15T15:35:30.520Z,89.82
2022-11-15T15:37:57.834Z,102.65
2022-11-15T15:40:26.485Z,89.05
2022-11-15T15:42:53.743Z,98.07
2022-11-15T15:45:22.038Z,89.57
2022-11-15T15:47:50.557Z,93.18
2022-11-15T15:50:47.021Z,91.07
2022-11-15T15:53:14.630Z,95.55
2022-11-15T15:55:41.888Z,95.70
2022-11-15T15:58:09.407Z,95.25
2022-11-15T16:00:36.961Z,94.20
2022-11-15T16:03:04.318Z,89.55
2022-11-15T16:05:31.362Z,92.30
2022-11-15T16:07:58.397Z,92.75
2022-11-15T16:10:31.072Z,97.85
2022-11-15T16:12:58.908Z,97.45
2022-11-15T16:15:30.690Z,95.07
2022-11-15T16:18:00.633Z,103.25
2022-11-15T16:20:35.278Z,98.65
2022-11-15T16:23:08.655Z,102.50
2022-11-15T16:25:56.964Z,100.53
2022-11-15T16:28:29.681Z,101.00
2022-11-15T16:31:07.242Z,100.75
2022-11-15T16:33:34.652Z,95.28
2022-11-15T16:36:02.480Z,111.55
2022-11-15T16:38:29.688Z,101.13
2022-11-15T16:40:56.733Z,99.13
2022-11-15T16:43:23.992Z,97.97
2022-11-15T16:45:51.642Z,90.38
2022-11-15T16:48:28.776Z,93.47
2022-11-15T16:50:59.618Z,109.30
2022-11-15T16:53:27.820Z,102.25
2022-11-15T16:55:58.120Z,100.57
2022-11-15T16:58:25.435Z,103.00
2022-11-15T17:00:54.027Z,98.75
2022-11-15T17:03:22.133Z,95.82
2022-11-15T17:05:49.720Z,107.15
2022-11-15T17:08:16.842Z,103.32
2022-11-15T17:10:44.294Z,102.93
2022-11-15T17:13:14.473Z,98.95
2022-11-15T17:15:41.565Z,97.47
2022-11-15T17:18:13.118Z,105.53
2022-11-15T17:20:40.968Z,109.53
2022-11-15T17:23:14.563Z,106.57
2022-11-15T17:25:41.779Z,104.93
2022-11-15T17:28:08.722Z,98.78
2022-11-15T17:30:35.956Z,111.32
2022-11-15T17:33:02.994Z,106.15
2022-11-15T17:35:29.903Z,106.50
2022-11-15T17:37:56.851Z,104.90
2022-11-15T17:43:08.030Z,110.97
2022-11-15T17:45:35.237Z,110.32
2022-11-15T17:48:02.357Z,119.43
2022-11-15T17:50:29.422Z,106.97
2022-11-15T17:52:57.364Z,108.07
2022-11-15T17:55:24.226Z,116.38
2022-11-15T17:57:51.270Z,120.38
2022-11-15T18:00:20.940Z,116.22
2022-11-15T18:02:47.947Z,120.40
2022-11-15T18:05:14.895Z,112.70
2022-11-15T18:07:41.732Z,115.32
2022-11-15T18:10:10.415Z,120.37
2022-11-15T18:12:37.553Z,120.97
2022-11-15T18:15:05.007Z,114.30
2022-11-15T18:17:32.169Z,126.45
2022-11-15T18:19:59.279Z,124.85
2022-11-15T18:22:26.339Z,132.38
2022-11-15T18:24:53.462Z,123.88
2022-11-15T18:27:20.473Z,134.63
2022-11-15T18:29:47.291Z,124.68
2022-11-15T18:32:17.877Z,136.32
2022-11-15T18:34:44.842Z,134.50
2022-11-15T18:37:11.963Z,152.15
2022-11-15T18:39:38.877Z,151.35
2022-11-15T18:42:06.038Z,144.00
2022-11-15T18:44:32.964Z,147.13
2022-11-15T18:47:00.048Z,153.23
2022-11-15T18:49:27.049Z,141.65
2022-11-15T18:51:54.013Z,151.50
2022-11-15T18:54:20.904Z,150.25
2022-11-15T18:56:48.098Z,148.75
2022-11-15T18:59:16.480Z,145.35
2022-11-15T19:01:48.756Z,157.18
2022-11-15T19:04:18.705Z,155.88
2022-11-15T19:06:50.537Z,146.40
2022-11-15T19:09:19.518Z,155.55
2022-11-15T19:11:48.175Z,157.38
2022-11-15T19:14:17.285Z,160.18
2022-11-15T19:16:50.183Z,159.07
2022-11-15T19:19:19.975Z,164.35
2022-11-15T19:21:47.550Z,153.55
2022-11-15T19:24:14.717Z,162.80
2022-11-15T19:26:41.834Z,148.18
2022-11-15T19:29:14.080Z,162.27
2022-11-15T19:31:42.163Z,155.88
2022-11-15T19:34:09.169Z,162.82
2022-11-15T19:36:44.027Z,149.77
2022-11-15T19:39:14.682Z,150.73
2022-11-15T19:41:44.156Z,154.00
2022-11-15T19:44:12.797Z,147.10
2022-11-15T19:46:40.750Z,165.70
2022-11-15T19:49:10.886Z,154.15
2022-11-15T19:51:39.128Z,156.05
2022-11-15T19:54:08.922Z,152.63
2022-11-15T19:56:37.349Z,149.05
2022-11-15T19:59:05.265Z,142.73
2022-11-15T20:01:39.291Z,153.52
2022-11-15T20:04:08.137Z,162.63
2022-11-15T20:06:40.601Z,173.07
2022-11-15T20:09:08.434Z,171.85
2022-11-15T20:11:38.192Z,177.02
2022-11-15T20:14:06.968Z,170.75
2022-11-15T20:16:33.943Z,171.80
2022-11-15T20:19:00.841Z,175.45
2022-11-15T20:21:28.209Z,171.15
2022-11-15T20:23:56.386Z,161.75
2022-11-15T20:26:23.653Z,169.43
2022-11-15T20:28:50.582Z,169.88
2022-11-15T20:31:17.992Z,169.52
2022-11-15T20:33:45.389Z,165.40
2022-11-15T20:36:15.728Z,175.50
2022-11-15T20:38:44.494Z,164.07
2022-11-15T20:41:12.641Z,170.95
2022-11-15T20:43:43.349Z,171.07
2022-11-15T20:46:11.982Z,167.95
2022-11-15T20:48:39.342Z,175.50
2022-11-15T20:51:14.483Z,186.90
2022-11-15T20:53:43.228Z,191.65
2022-11-15T20:56:16.394Z,187.15
2022-11-15T20:58:45.512Z,189.10
2022-11-15T21:01:15.124Z,190.88
2022-11-15T21:03:42.893Z,188.35
2022-11-15T21:06:11.288Z,192.73
2022-11-15T21:08:57.471Z,185.98
2022-11-15T21:11:43.672Z,192.20
2022-11-15T21:14:11.124Z,187.25
2022-11-15T21:16:39.060Z,187.88
2022-11-15T21:19:07.002Z,188.85
2022-11-15T21:21:35.701Z,179.07
2022-11-15T21:24:06.761Z,192.40
2022-11-15T21:26:35.045Z,200.60
2022-11-15T21:29:03.553Z,193.40
2022-11-15T21:31:34.635Z,191.80
2022-11-15T21:34:07.365Z,190.02
2022-11-15T21:36:34.703Z,173.75
2022-11-15T21:39:01.669Z,177.50
2022-11-15T21:41:28.601Z,187.30
2022-11-15T21:43:59.701Z,185.45
2022-11-15T21:46:27.126Z,180.82
2022-11-15T21:48:54.011Z,166.10
2022-11-15T21:51:20.942Z,178.65
2022-11-15T21:53:48.132Z,180.32
2022-11-15T21:56:15.903Z,172.55
2022-11-15T21:58:42.849Z,166.60
2022-11-15T22:01:29.901Z,178.10
2022-11-15T22:03:57.269Z,183.15
2022-11-15T22:06:24.634Z,180.98
2022-11-15T22:08:51.456Z,188.93
2022-11-15T22:11:18.572Z,175.30
2022-11-15T22:13:45.520Z,181.02
2022-11-15T22:16:12.494Z,184.85
2022-11-15T22:18:39.634Z,182.48
2022-11-15T22:21:12.723Z,190.52
2022-11-15T22:23:41.124Z,182.63
2022-11-15T22:26:10.378Z,174.20
2022-11-15T22:28:37.731Z,174.60
2022-11-15T22:31:04.931Z,173.38
2022-11-15T22:33:33.546Z,166.70
2022-11-15T22:36:00.759Z,183.10
2022-11-15T22:38:28.589Z,177.30
2022-11-15T22:40:56.561Z,175.45
2022-11-15T22:43:27.509Z,175.00
2022-11-15T22:45:56.092Z,170.82
2022-11-15T22:48:28.595Z,175.67
2022-11-15T22:50:56.492Z,165.80
2022-11-15T22:53:24.017Z,175.98
2022-11-15T22:55:53.993Z,178.27
2022-11-15T22:58:22.992Z,178.45
2022-11-15T23:00:55.893Z,181.88
2022-11-15T23:03:24.186Z,170.68
2022-11-15T23:05:51.749Z,182.15
2022-11-15T23:08:19.403Z,176.38
2022-11-15T23:11:05.145Z,185.75
2022-11-15T23:13:33.144Z,173.70
2022-11-15T23:16:25.902Z,180.52
2022-11-15T23:18:58.094Z,183.80
2022-11-15T23:21:52.231Z,177.40
2022-11-15T23:24:20.351Z,170.48
2022-11-15T23:26:49.080Z,181.60
2022-11-15T23:29:19.011Z,182.30
2022-11-15T23:32:05.071Z,175.45
2022-11-15T23:34:35.381Z,161.77
2022-11-15T23:37:02.277Z,178.52
2022-11-15T23:39:29.579Z,179.05
2022-11-15T23:41:56.563Z,180.20
2022-11-15T23:44:24.123Z,173.95
2022-11-15T23:46:51.221Z,175.20
2022-11-15T23:49:18.893Z,176.18
2022-11-15T23:51:45.780Z,188.07
2022-11-15T23:54:12.819Z,178.18
2022-11-15T23:56:40.633Z,180.75
2022-11-15T23:59:07.717Z,184.73
